This is the latest recevied weather packets stored in our database for station/object HB9GPU-10. If no packets are shown the sender has not sent any weather packets the latest 10 day(s).
| Time | Temp. | Humidity | Pressure | Rain* | Wind** | Luminosity | Snow |
|---|---|---|---|---|---|---|---|
| 1788446941 | 26.11° C | 30% | 1026.3 hPa | - | - | - | - |
| 1788446040 | 26.11° C | 30% | 1026.3 hPa | - | - | - | - |
| 1788445140 | 26.11° C | 31% | 1026.1 hPa | - | - | - | - |
| 1788444240 | 26.11° C | 30% | 1026.1 hPa | - | - | - | - |
| 1788443340 | 26.67° C | 31% | 1026 hPa | - | - | - | - |
| 1788442440 | 26.67° C | 31% | 1026.2 hPa | - | - | - | - |
| 1788441539 | 25° C | 34% | 1026.3 hPa | - | - | - | - |
| 1788440639 | 26.67° C | 30% | 1026.4 hPa | - | - | - | - |
| 1788439739 | 25.56° C | 32% | 1026.5 hPa | - | - | - | - |
| 1788438839 | 26.11° C | 31% | 1026.8 hPa | - | - | - | - |
| 1788437945 | 25.56° C | 32% | 1027 hPa | - | - | - | - |
| 1788437039 | 25.56° C | 32% | 1027.1 hPa | - | - | - | - |
| 1788436138 | 24.44° C | 32% | 1027.2 hPa | - | - | - | - |
| 1788435238 | 24.44° C | 32% | 1027.3 hPa | - | - | - | - |
| 1788434338 | 25.56° C | 32% | 1027.3 hPa | - | - | - | - |
| 1788433438 | 25° C | 33% | 1027.3 hPa | - | - | - | - |
| 1788432538 | 25° C | 32% | 1027.4 hPa | - | - | - | - |
| 1788431638 | 23.89° C | 34% | 1027.5 hPa | - | - | - | - |
| 1788430737 | 23.89° C | 34% | 1027.6 hPa | - | - | - | - |
| 1788429837 | 23.89° C | 35% | 1027.6 hPa | - | - | - | - |
| 1788428937 | 23.89° C | 34% | 1028 hPa | - | - | - | - |
| 1788428037 | 22.22° C | 38% | 1027.9 hPa | - | - | - | - |
| 1788427137 | 23.89° C | 35% | 1027.9 hPa | - | - | - | - |
| 1788426237 | 23.89° C | 35% | 1028.4 hPa | - | - | - | - |
| 1788425336 | 22.78° C | 37% | 1028 hPa | - | - | - | - |
* Rain since midnight (hover to see other rain measurements)
** Current wind speed in m/s (hover to see current wind gust speed)